createdAt,value
2017-12-22T00:00:35.288Z,17.25
2017-12-22T00:01:35.096Z,17.25
2017-12-22T00:02:35.541Z,17.25
2017-12-22T00:03:35.668Z,17.25
2017-12-22T00:04:35.548Z,17.25
2017-12-22T00:05:35.526Z,17.25
2017-12-22T00:06:35.286Z,17.25
2017-12-22T00:07:35.270Z,17.25
2017-12-22T00:08:34.897Z,17.19
2017-12-22T00:09:35.686Z,17.19
2017-12-22T00:10:35.774Z,17.25
2017-12-22T00:11:35.258Z,17.19
2017-12-22T00:12:35.273Z,17.19
2017-12-22T00:13:35.102Z,17.19
2017-12-22T00:14:35.533Z,17.19
2017-12-22T00:15:35.132Z,17.19
2017-12-22T00:16:35.270Z,17.19
2017-12-22T00:17:35.309Z,17.12
2017-12-22T00:18:35.283Z,17.19
2017-12-22T00:19:35.119Z,17.12
2017-12-22T00:20:35.298Z,17.19
2017-12-22T00:21:35.296Z,17.19
2017-12-22T00:22:34.730Z,17.19
2017-12-22T00:23:34.901Z,17.19
2017-12-22T00:24:35.296Z,17.12
2017-12-22T00:25:35.700Z,17.19
2017-12-22T00:26:35.105Z,17.12
2017-12-22T00:27:35.307Z,17.12
2017-12-22T00:28:35.724Z,17.12
2017-12-22T00:29:35.311Z,17.19
2017-12-22T00:30:35.294Z,17.06
2017-12-22T00:31:35.345Z,17.12
2017-12-22T00:32:35.569Z,17.06
2017-12-22T00:33:35.650Z,17.12
2017-12-22T00:34:34.787Z,17.12
2017-12-22T00:35:35.572Z,17.12
2017-12-22T00:36:35.549Z,17.12
2017-12-22T00:37:35.375Z,17.06
2017-12-22T00:38:35.490Z,17.12
2017-12-22T00:39:35.131Z,17.12
2017-12-22T00:40:35.451Z,17.12
2017-12-22T00:41:35.066Z,17.06
2017-12-22T00:42:35.303Z,17.06
2017-12-22T00:43:35.330Z,17.06
2017-12-22T00:44:35.841Z,17.12
2017-12-22T00:45:35.434Z,17.06
2017-12-22T00:46:35.442Z,17
2017-12-22T00:47:35.247Z,17.06
2017-12-22T00:48:35.300Z,17.06
2017-12-22T00:49:35.535Z,17.06
2017-12-22T00:50:34.923Z,17.06
2017-12-22T00:51:35.137Z,17
2017-12-22T00:52:34.925Z,17
2017-12-22T00:53:34.967Z,17.06
2017-12-22T00:54:35.123Z,17.06
2017-12-22T00:55:35.357Z,17.06
2017-12-22T00:56:35.739Z,17.06
2017-12-22T00:57:35.124Z,17
2017-12-22T00:58:35.304Z,17.06
2017-12-22T00:59:35.326Z,17
2017-12-22T01:00:35.279Z,17.06
2017-12-22T01:01:35.379Z,17
2017-12-22T01:02:35.324Z,17
2017-12-22T01:03:35.733Z,17
2017-12-22T01:04:35.252Z,17
2017-12-22T01:05:35.526Z,17
2017-12-22T01:06:35.544Z,16.94
2017-12-22T01:07:35.685Z,17
2017-12-22T01:08:35.140Z,17
2017-12-22T01:09:35.268Z,17
2017-12-22T01:10:35.482Z,16.94
2017-12-22T01:11:35.351Z,17
2017-12-22T01:12:35.073Z,17
2017-12-22T01:13:35.155Z,17
2017-12-22T01:14:35.710Z,16.94
2017-12-22T01:15:35.198Z,16.94
2017-12-22T01:16:35.125Z,17
2017-12-22T01:17:35.378Z,16.94
2017-12-22T01:18:35.616Z,16.94
2017-12-22T01:19:35.444Z,16.94
2017-12-22T01:20:35.298Z,16.94
2017-12-22T01:21:35.351Z,16.94
2017-12-22T01:22:35.303Z,16.94
2017-12-22T01:23:35.497Z,16.94
2017-12-22T01:24:35.110Z,16.94
2017-12-22T01:25:35.384Z,16.94
2017-12-22T01:26:35.092Z,16.94
2017-12-22T01:27:35.678Z,16.94
2017-12-22T01:28:35.107Z,17
2017-12-22T01:29:35.062Z,16.94
2017-12-22T01:30:35.402Z,16.94
2017-12-22T01:31:35.390Z,16.94
2017-12-22T01:32:35.155Z,16.94
2017-12-22T01:33:34.574Z,16.94
2017-12-22T01:34:35.530Z,16.94
2017-12-22T01:35:35.252Z,16.94
2017-12-22T01:36:34.894Z,16.87
2017-12-22T01:37:35.210Z,16.87
2017-12-22T01:38:35.363Z,16.94
2017-12-22T01:39:34.961Z,16.94
2017-12-22T01:40:35.408Z,16.87
2017-12-22T01:41:35.673Z,16.87
2017-12-22T01:42:35.386Z,16.87
2017-12-22T01:43:35.118Z,16.87
2017-12-22T01:44:35.786Z,16.87
2017-12-22T01:45:35.126Z,16.87
2017-12-22T01:46:35.399Z,16.81
2017-12-22T01:47:35.561Z,16.87
2017-12-22T01:48:35.691Z,16.81
2017-12-22T01:49:35.113Z,16.87
2017-12-22T01:50:35.675Z,16.81
2017-12-22T01:51:35.743Z,16.87
2017-12-22T01:52:35.697Z,16.87
2017-12-22T01:53:35.519Z,16.87
2017-12-22T01:54:35.469Z,16.87
2017-12-22T01:55:35.187Z,16.87
2017-12-22T01:56:35.333Z,16.87
2017-12-22T01:57:35.724Z,16.87
2017-12-22T01:58:35.089Z,16.81
2017-12-22T01:59:35.503Z,16.81
2017-12-22T02:00:35.165Z,16.87
2017-12-22T02:01:35.205Z,16.87
2017-12-22T02:02:35.141Z,16.87
2017-12-22T02:03:35.479Z,16.87
2017-12-22T02:04:35.105Z,16.87
2017-12-22T02:05:35.520Z,16.81
2017-12-22T02:06:35.177Z,16.81
2017-12-22T02:07:35.364Z,16.81
2017-12-22T02:08:35.541Z,16.81
2017-12-22T02:09:35.115Z,16.81
2017-12-22T02:10:35.119Z,16.81
2017-12-22T02:11:35.513Z,16.81
2017-12-22T02:12:35.064Z,16.81
2017-12-22T02:13:35.546Z,16.81
2017-12-22T02:14:35.330Z,16.81
2017-12-22T02:15:35.328Z,16.81
2017-12-22T02:16:35.447Z,16.81
2017-12-22T02:17:34.962Z,16.75
2017-12-22T02:18:35.311Z,16.81
2017-12-22T02:19:35.160Z,16.81
2017-12-22T02:20:35.153Z,16.75
2017-12-22T02:21:35.384Z,16.81
2017-12-22T02:22:35.369Z,16.75
2017-12-22T02:23:35.510Z,16.75
2017-12-22T02:24:34.955Z,16.81
2017-12-22T02:25:35.482Z,16.81
2017-12-22T02:26:35.509Z,16.81
2017-12-22T02:27:35.329Z,16.81
2017-12-22T02:28:35.135Z,16.75
2017-12-22T02:29:34.763Z,16.75
2017-12-22T02:30:35.208Z,16.75
2017-12-22T02:31:35.752Z,16.75
2017-12-22T02:32:35.790Z,16.75
2017-12-22T02:33:35.763Z,16.75
2017-12-22T02:34:35.751Z,16.81
2017-12-22T02:35:35.572Z,16.75
2017-12-22T02:36:35.786Z,16.69
2017-12-22T02:37:35.803Z,16.75
2017-12-22T02:38:35.616Z,16.75
2017-12-22T02:39:35.559Z,16.75
2017-12-22T02:40:35.548Z,16.75
2017-12-22T02:41:35.783Z,16.75
2017-12-22T02:42:35.572Z,16.75
2017-12-22T02:43:35.200Z,16.75
2017-12-22T02:44:35.552Z,16.75
2017-12-22T02:45:35.406Z,16.75
2017-12-22T02:46:35.384Z,16.69
2017-12-22T02:47:35.157Z,16.75
2017-12-22T02:48:36.062Z,16.69
2017-12-22T02:49:35.511Z,16.75
2017-12-22T02:50:35.733Z,16.75
2017-12-22T02:51:35.784Z,16.69
2017-12-22T02:52:35.520Z,16.69
2017-12-22T02:53:35.608Z,16.69
2017-12-22T02:54:35.416Z,16.69
2017-12-22T02:55:35.572Z,16.75
2017-12-22T02:56:35.340Z,16.69
2017-12-22T02:57:35.340Z,16.69
2017-12-22T02:58:35.202Z,16.69
2017-12-22T02:59:35.325Z,16.69
2017-12-22T03:00:35.365Z,16.69
2017-12-22T03:01:35.779Z,16.69
2017-12-22T03:02:35.354Z,16.69
2017-12-22T03:03:36.004Z,16.69
2017-12-22T03:04:35.514Z,16.69
2017-12-22T03:05:35.513Z,16.69
2017-12-22T03:06:35.349Z,16.69
2017-12-22T03:07:35.147Z,16.69
2017-12-22T03:08:35.780Z,16.69
2017-12-22T03:09:35.661Z,16.69
2017-12-22T03:10:35.439Z,16.62
2017-12-22T03:11:35.564Z,16.69
2017-12-22T03:12:35.340Z,16.62
2017-12-22T03:13:34.902Z,16.62
2017-12-22T03:14:35.401Z,16.62
2017-12-22T03:15:35.536Z,16.69
2017-12-22T03:16:35.350Z,16.69
2017-12-22T03:17:35.134Z,16.62
2017-12-22T03:18:35.540Z,16.62
2017-12-22T03:19:35.143Z,16.62
2017-12-22T03:20:34.983Z,16.62
2017-12-22T03:21:35.809Z,16.69
2017-12-22T03:22:35.349Z,16.62
2017-12-22T03:23:35.109Z,16.62
2017-12-22T03:24:35.292Z,16.62
2017-12-22T03:25:35.545Z,16.56
2017-12-22T03:26:35.217Z,16.62
2017-12-22T03:27:35.310Z,16.56
2017-12-22T03:28:35.501Z,16.62
2017-12-22T03:29:35.322Z,16.62
2017-12-22T03:30:35.877Z,16.62
2017-12-22T03:31:35.527Z,16.62
2017-12-22T03:32:34.973Z,16.62
2017-12-22T03:33:35.716Z,16.56
2017-12-22T03:34:35.201Z,16.62
2017-12-22T03:35:34.960Z,16.56
2017-12-22T03:36:35.724Z,16.56
2017-12-22T03:37:34.955Z,16.56
2017-12-22T03:38:35.546Z,16.62
2017-12-22T03:39:35.339Z,16.62
2017-12-22T03:40:35.522Z,16.56
2017-12-22T03:41:35.168Z,16.56
2017-12-22T03:42:35.410Z,16.56
2017-12-22T03:43:35.435Z,16.56
2017-12-22T03:44:35.600Z,16.56
2017-12-22T03:45:35.370Z,16.62
2017-12-22T03:46:34.922Z,16.56
2017-12-22T03:47:35.314Z,16.56
2017-12-22T03:48:35.513Z,16.56
2017-12-22T03:49:35.543Z,16.56
2017-12-22T03:50:35.008Z,16.56
2017-12-22T03:51:35.506Z,16.62
2017-12-22T03:52:35.139Z,16.5
2017-12-22T03:53:35.172Z,16.56
2017-12-22T03:54:35.211Z,16.5
2017-12-22T03:56:07.706Z,16.5
2017-12-22T03:56:35.332Z,16.56
2017-12-22T03:57:35.390Z,16.5
2017-12-22T03:58:35.700Z,16.5
2017-12-22T03:59:35.615Z,16.56
2017-12-22T04:00:34.982Z,16.56
2017-12-22T04:01:35.177Z,16.5
2017-12-22T04:02:35.186Z,16.5
2017-12-22T04:03:35.147Z,16.5
2017-12-22T04:04:35.289Z,16.5
2017-12-22T04:05:35.364Z,16.56
2017-12-22T04:06:35.561Z,16.56
2017-12-22T04:07:35.280Z,16.56
2017-12-22T04:08:34.992Z,16.5
2017-12-22T04:09:35.419Z,16.56
2017-12-22T04:10:35.557Z,16.5
2017-12-22T04:11:35.379Z,16.5
2017-12-22T04:12:35.401Z,16.5
2017-12-22T04:13:35.095Z,16.44
2017-12-22T04:14:34.779Z,16.5
2017-12-22T04:15:35.742Z,16.5
2017-12-22T04:16:35.147Z,16.44
2017-12-22T04:17:35.025Z,16.5
2017-12-22T04:18:35.661Z,16.5
2017-12-22T04:19:35.417Z,16.44
2017-12-22T04:20:34.966Z,16.5
2017-12-22T04:21:35.597Z,16.44
2017-12-22T04:22:35.586Z,16.5
2017-12-22T04:23:35.395Z,16.5
2017-12-22T04:24:35.518Z,16.5
2017-12-22T04:25:35.386Z,16.44
2017-12-22T04:26:34.777Z,16.5
2017-12-22T04:27:35.428Z,16.44
2017-12-22T04:28:35.127Z,16.5
2017-12-22T04:29:35.374Z,16.44
2017-12-22T04:30:35.143Z,16.5
2017-12-22T04:31:35.212Z,16.44
2017-12-22T04:32:35.155Z,16.44
2017-12-22T04:33:35.370Z,16.44
2017-12-22T04:34:35.028Z,16.44
2017-12-22T04:35:35.597Z,16.44
2017-12-22T04:36:35.227Z,16.44
2017-12-22T04:37:35.397Z,16.44
2017-12-22T04:38:35.001Z,16.44
2017-12-22T04:39:35.378Z,16.37
2017-12-22T04:40:35.386Z,16.44
2017-12-22T04:41:35.121Z,16.5
2017-12-22T04:42:35.079Z,16.44
2017-12-22T04:43:35.830Z,16.37
2017-12-22T04:44:35.245Z,16.44
2017-12-22T04:45:35.188Z,16.44
2017-12-22T04:46:35.158Z,16.44
2017-12-22T04:47:34.970Z,16.44
2017-12-22T04:48:35.462Z,16.44
2017-12-22T04:49:35.199Z,16.37
2017-12-22T04:50:35.336Z,16.44
2017-12-22T04:51:35.516Z,16.44
2017-12-22T04:52:35.247Z,16.44
2017-12-22T04:53:35.612Z,16.44
2017-12-22T04:54:35.571Z,16.44
2017-12-22T04:55:35.930Z,16.44
2017-12-22T04:56:36.081Z,16.44
2017-12-22T04:57:35.558Z,16.44
2017-12-22T04:58:35.665Z,16.44
2017-12-22T04:59:35.819Z,16.44
2017-12-22T05:00:35.036Z,16.5
2017-12-22T05:01:36.577Z,16.44
2017-12-22T05:02:35.627Z,16.5
2017-12-22T05:03:35.676Z,16.44
2017-12-22T05:04:36.019Z,16.5
2017-12-22T05:05:35.325Z,16.5
2017-12-22T05:06:35.985Z,16.5
2017-12-22T05:07:34.856Z,16.5
2017-12-22T05:08:35.318Z,16.5
2017-12-22T05:09:35.562Z,16.56
2017-12-22T05:10:35.534Z,16.56
2017-12-22T05:11:36.103Z,16.5
2017-12-22T05:12:35.844Z,16.56
2017-12-22T05:13:35.758Z,16.56
2017-12-22T05:14:35.844Z,16.5
2017-12-22T05:15:35.806Z,16.5
2017-12-22T05:16:35.125Z,16.56
2017-12-22T05:17:35.523Z,16.56
2017-12-22T05:18:35.450Z,16.56
2017-12-22T05:19:36.113Z,16.62
2017-12-22T05:20:35.801Z,16.56
2017-12-22T05:21:35.865Z,16.62
2017-12-22T05:22:35.178Z,16.69
2017-12-22T05:23:35.929Z,16.69
2017-12-22T05:24:36.105Z,16.69
2017-12-22T05:25:35.758Z,16.75
2017-12-22T05:26:35.397Z,16.75
2017-12-22T05:27:36.382Z,16.75
2017-12-22T05:28:35.627Z,16.75
2017-12-22T05:29:35.913Z,16.75
2017-12-22T05:30:35.285Z,16.81
2017-12-22T05:31:35.980Z,16.75
2017-12-22T05:32:35.589Z,16.81
2017-12-22T05:33:35.315Z,16.87
2017-12-22T05:34:37.825Z,16.87
2017-12-22T05:35:35.549Z,16.94
2017-12-22T05:36:36.615Z,16.87
2017-12-22T05:37:35.265Z,16.94
2017-12-22T05:38:35.470Z,16.94
2017-12-22T05:39:35.691Z,17
2017-12-22T05:40:35.551Z,17
2017-12-22T05:41:35.297Z,17
2017-12-22T05:42:36.409Z,17
2017-12-22T05:43:36.395Z,17
2017-12-22T05:44:36.136Z,17
2017-12-22T05:45:35.438Z,17.12
2017-12-22T05:46:35.470Z,17.06
2017-12-22T05:47:36.202Z,17.06
2017-12-22T05:48:35.156Z,17.12
2017-12-22T05:49:35.505Z,17.12
2017-12-22T05:50:35.294Z,17.12
2017-12-22T05:51:35.515Z,17.12
2017-12-22T05:52:35.274Z,17.19
2017-12-22T05:53:35.412Z,17.19
2017-12-22T05:54:35.323Z,17.19
2017-12-22T05:55:35.352Z,17.25
2017-12-22T05:56:36.430Z,17.19
2017-12-22T05:57:42.134Z,17.25
2017-12-22T05:58:35.618Z,17.31
2017-12-22T05:59:35.414Z,17.31
2017-12-22T06:00:35.497Z,17.31
2017-12-22T06:01:36.004Z,17.31
2017-12-22T06:02:35.972Z,17.37
2017-12-22T06:03:36.860Z,17.37
2017-12-22T06:04:36.066Z,17.31
2017-12-22T06:05:35.504Z,17.37
2017-12-22T06:06:35.408Z,17.37
2017-12-22T06:07:36.010Z,17.37
2017-12-22T06:08:36.424Z,17.44
2017-12-22T06:09:36.424Z,17.37
2017-12-22T06:10:37.366Z,17.44
2017-12-22T06:11:37.148Z,17.44
2017-12-22T06:12:35.059Z,17.44
2017-12-22T06:13:36.003Z,17.5
2017-12-22T06:14:36.578Z,17.44
2017-12-22T06:15:37.044Z,17.5
2017-12-22T06:16:36.533Z,17.44
2017-12-22T06:17:35.980Z,17.5
2017-12-22T06:18:36.166Z,17.5
2017-12-22T06:19:35.407Z,17.56
2017-12-22T06:20:35.445Z,17.56
2017-12-22T06:21:35.711Z,17.56
2017-12-22T06:22:36.533Z,17.56
2017-12-22T06:23:35.554Z,17.56
2017-12-22T06:24:35.320Z,17.62
2017-12-22T06:25:34.867Z,17.56
2017-12-22T06:26:35.401Z,17.56
2017-12-22T06:27:36.035Z,17.62
2017-12-22T06:28:36.057Z,17.62
2017-12-22T06:29:35.730Z,17.56
2017-12-22T06:30:35.990Z,17.62
2017-12-22T06:31:35.298Z,17.69
2017-12-22T06:32:35.395Z,17.62
2017-12-22T06:33:35.585Z,17.69
2017-12-22T06:34:35.212Z,17.69
2017-12-22T06:35:35.731Z,17.69
2017-12-22T06:36:36.681Z,17.69
2017-12-22T06:37:35.150Z,17.75
2017-12-22T06:38:36.679Z,17.75
2017-12-22T06:39:35.737Z,17.69
2017-12-22T06:40:35.148Z,17.75
2017-12-22T06:41:35.654Z,17.75
2017-12-22T06:42:35.446Z,17.75
2017-12-22T06:43:35.758Z,17.75
2017-12-22T06:44:35.658Z,17.75
2017-12-22T06:45:35.491Z,17.81
2017-12-22T06:46:36.523Z,17.81
2017-12-22T06:47:36.709Z,17.81
2017-12-22T06:48:36.447Z,17.81
2017-12-22T06:49:35.681Z,17.81
2017-12-22T06:50:35.897Z,17.81
2017-12-22T06:51:35.600Z,17.87
2017-12-22T06:52:35.029Z,17.87
2017-12-22T06:53:36.649Z,17.87
2017-12-22T06:54:36.237Z,17.87
2017-12-22T06:55:36.064Z,17.87
2017-12-22T06:56:36.674Z,17.87
2017-12-22T06:57:35.796Z,17.87
2017-12-22T06:58:36.875Z,17.87
2017-12-22T06:59:36.992Z,17.87
2017-12-22T07:00:36.715Z,17.87
2017-12-22T07:01:36.128Z,17.94
2017-12-22T07:02:36.843Z,17.87
2017-12-22T07:03:36.176Z,17.94
2017-12-22T07:04:36.285Z,17.94
2017-12-22T07:05:36.619Z,17.94
2017-12-22T07:06:35.781Z,17.94
2017-12-22T07:07:36.739Z,17.94
2017-12-22T07:08:37.404Z,17.94
2017-12-22T07:09:36.017Z,17.94
2017-12-22T07:10:35.729Z,17.94
2017-12-22T07:11:36.047Z,17.94
2017-12-22T07:12:36.199Z,18
2017-12-22T07:13:35.521Z,17.94
2017-12-22T07:14:35.319Z,18
2017-12-22T07:15:37.321Z,18
2017-12-22T07:16:36.592Z,17.94
2017-12-22T07:17:36.145Z,18
2017-12-22T07:18:35.795Z,18
2017-12-22T07:19:35.745Z,18
2017-12-22T07:20:35.313Z,18
2017-12-22T07:21:35.684Z,18
2017-12-22T07:22:36.235Z,18
2017-12-22T07:23:36.842Z,18
2017-12-22T07:24:36.211Z,17.94
2017-12-22T07:25:35.442Z,18
2017-12-22T07:26:35.415Z,18
2017-12-22T07:27:35.527Z,18
2017-12-22T07:28:35.461Z,17.94
2017-12-22T07:29:35.021Z,17.94
2017-12-22T07:30:35.080Z,18
2017-12-22T07:31:35.230Z,17.94
2017-12-22T07:32:35.287Z,18
2017-12-22T07:33:35.241Z,18
2017-12-22T07:34:34.990Z,17.94
2017-12-22T07:35:34.855Z,17.94
2017-12-22T07:36:35.393Z,17.94
2017-12-22T07:37:35.290Z,18
2017-12-22T07:38:34.917Z,17.94
2017-12-22T07:39:34.855Z,17.94
2017-12-22T07:40:35.253Z,18
2017-12-22T07:41:35.291Z,17.94
2017-12-22T07:42:35.448Z,17.94
2017-12-22T07:43:35.488Z,17.94
2017-12-22T07:44:35.619Z,17.94
2017-12-22T07:45:35.195Z,17.94
2017-12-22T07:46:35.704Z,18
2017-12-22T07:47:35.325Z,17.94
2017-12-22T07:48:36.083Z,17.94
2017-12-22T07:49:35.425Z,17.94
2017-12-22T07:50:35.396Z,17.94
2017-12-22T07:51:35.558Z,18
2017-12-22T07:52:35.450Z,18
2017-12-22T07:53:36.100Z,17.94
2017-12-22T07:54:35.846Z,18
2017-12-22T07:55:35.404Z,17.94
2017-12-22T07:56:35.760Z,17.94
2017-12-22T07:57:35.197Z,17.94
2017-12-22T07:58:35.670Z,17.94
2017-12-22T07:59:35.524Z,17.94
2017-12-22T08:00:35.624Z,17.94
2017-12-22T08:01:35.179Z,17.94
2017-12-22T08:02:35.647Z,17.94
2017-12-22T08:03:35.065Z,18
2017-12-22T08:04:35.652Z,18
2017-12-22T08:05:35.446Z,18
2017-12-22T08:06:35.317Z,17.94
2017-12-22T08:07:35.285Z,17.94
2017-12-22T08:08:35.045Z,18
2017-12-22T08:09:35.624Z,18
2017-12-22T08:10:35.324Z,17.94
2017-12-22T08:11:35.516Z,18
2017-12-22T08:12:35.268Z,18
2017-12-22T08:13:35.005Z,17.94
2017-12-22T08:14:35.242Z,18
2017-12-22T08:15:35.357Z,18
2017-12-22T08:16:35.090Z,18
2017-12-22T08:17:35.057Z,18
2017-12-22T08:18:34.891Z,18
2017-12-22T08:19:35.180Z,18
2017-12-22T08:20:35.108Z,18
2017-12-22T08:21:35.685Z,18
2017-12-22T08:22:35.703Z,18
2017-12-22T08:23:35.289Z,18
2017-12-22T08:24:35.651Z,18
2017-12-22T08:25:34.942Z,18
2017-12-22T08:26:35.590Z,18
2017-12-22T08:27:35.010Z,18
2017-12-22T08:28:35.272Z,17.94
2017-12-22T08:29:35.698Z,18
2017-12-22T08:30:35.524Z,18
2017-12-22T08:31:35.489Z,18
2017-12-22T08:32:35.044Z,18
2017-12-22T08:33:35.433Z,18
2017-12-22T08:34:35.234Z,18
2017-12-22T08:35:35.424Z,17.94
2017-12-22T08:36:35.250Z,18
2017-12-22T08:37:35.092Z,18
2017-12-22T08:38:35.305Z,18
2017-12-22T08:39:35.517Z,18
2017-12-22T08:40:35.481Z,18
2017-12-22T08:41:35.640Z,18.06
2017-12-22T08:42:35.656Z,18
2017-12-22T08:43:35.596Z,18
2017-12-22T08:44:35.597Z,18
2017-12-22T08:45:35.132Z,18
2017-12-22T08:46:35.513Z,18
2017-12-22T08:47:35.314Z,18
2017-12-22T08:48:35.485Z,18
2017-12-22T08:49:35.116Z,18
2017-12-22T08:50:35.338Z,18
2017-12-22T08:51:35.521Z,18
2017-12-22T08:52:35.106Z,18
2017-12-22T08:53:35.500Z,18
2017-12-22T08:54:35.451Z,18
2017-12-22T08:55:35.693Z,18
2017-12-22T08:56:35.275Z,18.06
2017-12-22T08:57:35.692Z,18.06
2017-12-22T08:58:35.328Z,18.06
2017-12-22T08:59:35.521Z,18
2017-12-22T09:00:34.905Z,18.06
2017-12-22T09:01:35.146Z,18.06
2017-12-22T09:02:35.273Z,18.06
2017-12-22T09:03:35.752Z,18.06
2017-12-22T09:04:35.362Z,18
2017-12-22T09:05:35.299Z,18.06
2017-12-22T09:06:35.326Z,18.06
2017-12-22T09:07:35.931Z,18
2017-12-22T09:08:35.754Z,18
2017-12-22T09:09:35.239Z,18.06
2017-12-22T09:10:35.728Z,18.06
2017-12-22T09:11:35.298Z,18.06
2017-12-22T09:12:35.486Z,18.06
2017-12-22T09:13:41.012Z,18.12
2017-12-22T09:14:35.331Z,18.12
2017-12-22T09:15:35.671Z,18.12
2017-12-22T09:16:35.284Z,18.12
2017-12-22T09:17:35.079Z,18.12
2017-12-22T09:18:35.304Z,18.12
2017-12-22T09:19:35.892Z,18.06
2017-12-22T09:20:35.308Z,18.12
2017-12-22T09:21:35.545Z,18.06
2017-12-22T09:22:35.100Z,18.12
2017-12-22T09:23:35.454Z,18.12
2017-12-22T09:24:35.926Z,18.19
2017-12-22T09:25:35.855Z,18.19
2017-12-22T09:26:35.503Z,18.12
2017-12-22T09:27:35.133Z,18.12
2017-12-22T09:28:35.542Z,18.19
2017-12-22T09:29:57.817Z,18.12
2017-12-22T09:30:35.515Z,18.12
2017-12-22T09:31:35.995Z,18.19
2017-12-22T09:32:35.300Z,18.19
2017-12-22T09:33:35.088Z,18.12
2017-12-22T09:34:35.253Z,18.19
2017-12-22T09:35:35.311Z,18.19
2017-12-22T09:36:35.502Z,18.19
2017-12-22T09:37:35.944Z,18.12
2017-12-22T09:38:35.304Z,18.19
2017-12-22T09:39:35.125Z,18.19
2017-12-22T09:40:35.913Z,18.12
2017-12-22T09:41:35.490Z,18.19
2017-12-22T09:42:35.430Z,18.19
2017-12-22T09:43:35.685Z,18.19
2017-12-22T09:44:35.690Z,18.19
2017-12-22T09:45:35.524Z,18.19
2017-12-22T09:46:35.523Z,18.25
2017-12-22T09:47:35.623Z,18.19
2017-12-22T09:48:35.098Z,18.25
2017-12-22T09:49:35.289Z,18.19
2017-12-22T09:50:35.291Z,18.19
2017-12-22T09:51:35.282Z,18.19
2017-12-22T09:52:35.337Z,18.25
2017-12-22T09:53:35.488Z,18.19
2017-12-22T09:54:35.697Z,18.25
2017-12-22T09:55:35.633Z,18.25
2017-12-22T09:56:35.559Z,18.19
2017-12-22T09:57:35.505Z,18.25
2017-12-22T09:58:35.083Z,18.25
2017-12-22T09:59:35.298Z,18.25
2017-12-22T10:00:35.516Z,18.25
2017-12-22T10:01:35.304Z,18.25
2017-12-22T10:02:35.287Z,18.25
2017-12-22T10:03:35.939Z,18.25
2017-12-22T10:04:35.579Z,18.25
2017-12-22T10:05:35.526Z,18.19
2017-12-22T10:06:35.548Z,18.25
2017-12-22T10:07:35.180Z,18.19
2017-12-22T10:08:35.755Z,18.25
2017-12-22T10:09:35.533Z,18.25
2017-12-22T10:10:35.521Z,18.19
2017-12-22T10:11:35.531Z,18.25
2017-12-22T10:12:35.499Z,18.25
2017-12-22T10:13:35.521Z,18.25
2017-12-22T10:14:35.765Z,18.25
2017-12-22T10:15:35.119Z,18.25
2017-12-22T10:16:35.486Z,18.25
2017-12-22T10:17:35.678Z,18.25
2017-12-22T10:18:35.904Z,18.25
2017-12-22T10:19:35.732Z,18.25
2017-12-22T10:20:37.608Z,18.25
2017-12-22T10:21:35.335Z,18.25
2017-12-22T10:22:35.454Z,18.25
2017-12-22T10:23:35.759Z,18.19
2017-12-22T10:24:35.511Z,18.25
2017-12-22T10:25:35.458Z,18.25
2017-12-22T10:26:35.750Z,18.25
2017-12-22T10:27:35.954Z,18.19
2017-12-22T10:28:35.855Z,18.19
2017-12-22T10:29:34.897Z,18.19
2017-12-22T10:30:35.517Z,18.19
2017-12-22T10:31:35.928Z,18.19
2017-12-22T10:32:35.501Z,18.25
2017-12-22T10:33:35.725Z,18.25
2017-12-22T10:34:35.908Z,18.25
2017-12-22T10:35:35.671Z,18.19
2017-12-22T10:36:35.498Z,18.19
2017-12-22T10:37:34.953Z,18.25
2017-12-22T10:38:35.499Z,18.19
2017-12-22T10:39:35.313Z,18.25
2017-12-22T10:40:34.898Z,18.19
2017-12-22T10:41:35.818Z,18.25
2017-12-22T10:42:35.353Z,18.25
2017-12-22T10:43:34.930Z,18.25
2017-12-22T10:44:35.315Z,18.19
2017-12-22T10:45:35.328Z,18.25
2017-12-22T10:46:35.328Z,18.19
2017-12-22T10:47:35.527Z,18.25
2017-12-22T10:48:35.678Z,18.19
2017-12-22T10:49:35.302Z,18.25
2017-12-22T10:50:35.852Z,18.19
2017-12-22T10:51:35.733Z,18.19
2017-12-22T10:52:35.411Z,18.31
2017-12-22T10:53:45.031Z,18.31
2017-12-22T10:54:35.595Z,18.31
2017-12-22T10:55:35.468Z,18.37
2017-12-22T10:56:35.694Z,18.31
2017-12-22T10:57:35.174Z,18.37
2017-12-22T10:58:35.953Z,18.31
2017-12-22T10:59:35.302Z,18.37
2017-12-22T11:00:34.939Z,18.37
2017-12-22T11:01:35.397Z,18.37
2017-12-22T11:02:35.665Z,18.44
2017-12-22T11:03:35.540Z,18.44
2017-12-22T11:04:35.500Z,18.37
2017-12-22T11:05:35.926Z,18.5
2017-12-22T11:06:35.178Z,18.44
2017-12-22T11:07:35.937Z,18.5
2017-12-22T11:08:35.283Z,18.44
2017-12-22T11:09:35.186Z,18.44
2017-12-22T11:10:35.725Z,18.5
2017-12-22T11:11:35.724Z,18.44
2017-12-22T11:12:35.339Z,18.5
2017-12-22T11:13:35.777Z,18.5
2017-12-22T11:14:35.538Z,18.44
2017-12-22T11:15:35.725Z,18.5
2017-12-22T11:16:35.331Z,18.5
2017-12-22T11:17:35.572Z,18.44
2017-12-22T11:18:35.097Z,18.5
2017-12-22T11:19:35.368Z,18.5
2017-12-22T11:20:35.325Z,18.5
2017-12-22T11:21:35.324Z,18.5
2017-12-22T11:22:35.889Z,18.56
2017-12-22T11:23:35.376Z,18.5
2017-12-22T11:24:36.489Z,18.5
2017-12-22T11:25:35.481Z,18.5
2017-12-22T11:26:35.409Z,18.56
2017-12-22T11:27:35.347Z,18.5
2017-12-22T11:28:35.533Z,18.5
2017-12-22T11:29:35.910Z,18.5
2017-12-22T11:30:35.308Z,18.5
2017-12-22T11:31:35.505Z,18.5
2017-12-22T11:32:35.642Z,18.5
2017-12-22T11:33:35.555Z,18.5
2017-12-22T11:34:35.481Z,18.5
2017-12-22T11:35:35.541Z,18.5
2017-12-22T11:36:35.195Z,18.5
2017-12-22T11:37:35.119Z,18.5
2017-12-22T11:38:35.571Z,18.56
2017-12-22T11:39:35.307Z,18.56
2017-12-22T11:40:35.343Z,18.56
2017-12-22T11:41:35.145Z,18.56
2017-12-22T11:42:35.196Z,18.56
2017-12-22T11:43:35.403Z,18.56
2017-12-22T11:44:35.623Z,18.56
2017-12-22T11:45:35.818Z,18.5
2017-12-22T11:46:35.544Z,18.56
2017-12-22T11:47:35.276Z,18.56
2017-12-22T11:48:35.548Z,18.5
2017-12-22T11:49:35.557Z,18.56
2017-12-22T11:50:35.369Z,18.5
2017-12-22T11:51:35.489Z,18.5
2017-12-22T11:52:35.567Z,18.5
2017-12-22T11:53:35.319Z,18.56
2017-12-22T11:54:35.574Z,18.5
2017-12-22T11:55:35.322Z,18.56
2017-12-22T11:56:35.227Z,18.5
2017-12-22T11:57:35.550Z,18.5
2017-12-22T11:58:35.794Z,18.5
2017-12-22T11:59:35.372Z,18.56
2017-12-22T12:00:35.765Z,18.5
2017-12-22T12:01:35.469Z,18.5
2017-12-22T12:02:35.955Z,18.5
2017-12-22T12:03:35.344Z,18.5
2017-12-22T12:04:35.185Z,18.56
2017-12-22T12:05:35.587Z,18.5
2017-12-22T12:06:35.167Z,18.56
2017-12-22T12:07:35.584Z,18.56
2017-12-22T12:08:35.547Z,18.5
2017-12-22T12:09:35.570Z,18.5
2017-12-22T12:10:35.561Z,18.56
2017-12-22T12:11:35.547Z,18.5
2017-12-22T12:12:35.197Z,18.5
2017-12-22T12:13:35.596Z,18.56
2017-12-22T12:14:35.402Z,18.5
2017-12-22T12:15:35.386Z,18.5
2017-12-22T12:16:35.550Z,18.56
2017-12-22T12:17:35.153Z,18.56
2017-12-22T12:18:35.562Z,18.56
2017-12-22T12:19:35.570Z,18.56
2017-12-22T12:20:35.363Z,18.56
2017-12-22T12:21:35.398Z,18.5
2017-12-22T12:22:35.815Z,18.56
2017-12-22T12:23:35.582Z,18.56
2017-12-22T12:24:35.413Z,18.56
2017-12-22T12:25:35.344Z,18.56
2017-12-22T12:26:35.526Z,18.56
2017-12-22T12:27:35.656Z,18.56
2017-12-22T12:28:35.572Z,18.5
2017-12-22T12:29:36.205Z,18.5
2017-12-22T12:30:35.562Z,18.56
2017-12-22T12:31:35.784Z,18.62
2017-12-22T12:32:35.600Z,18.56
2017-12-22T12:33:35.563Z,18.56
2017-12-22T12:34:35.421Z,18.56
2017-12-22T12:35:35.159Z,18.56
2017-12-22T12:36:35.547Z,18.56
2017-12-22T12:37:35.217Z,18.62
2017-12-22T12:38:35.507Z,18.56
2017-12-22T12:39:34.995Z,18.56
2017-12-22T12:40:35.162Z,18.62
2017-12-22T12:41:36.160Z,18.56
2017-12-22T12:42:35.782Z,18.62
2017-12-22T12:43:35.833Z,18.56
2017-12-22T12:44:35.592Z,18.62
2017-12-22T12:45:35.517Z,18.56
2017-12-22T12:46:36.089Z,18.56
2017-12-22T12:47:35.559Z,18.62
2017-12-22T12:48:35.996Z,18.56
2017-12-22T12:49:35.867Z,18.62
2017-12-22T12:50:35.791Z,18.62
2017-12-22T12:51:35.590Z,18.62
2017-12-22T12:52:35.596Z,18.69
2017-12-22T12:53:35.527Z,18.69
2017-12-22T12:54:36.024Z,18.69
2017-12-22T12:55:35.272Z,18.69
2017-12-22T12:56:35.436Z,18.69
2017-12-22T12:57:35.740Z,18.75
2017-12-22T12:58:35.631Z,18.75
2017-12-22T12:59:35.640Z,18.75
2017-12-22T13:00:35.360Z,18.75
2017-12-22T13:01:35.409Z,18.69
2017-12-22T13:02:35.554Z,18.69
2017-12-22T13:03:35.610Z,18.69
2017-12-22T13:04:35.793Z,18.69